Wayland, New York
Current Conditions -  °F | °C
As of 6:54 AM on Saturday 25 Oct 2014 (Local Time) from KDSV Reporting Station
Overcast Overcast  
Wind Chill: 46°   Ceiling: 5000
Heat Index: 49°   Visibility: 10mi
Dew Point: 41°   Wind: 7mph
Humidity: 74%   Direction: 140°SE
Pressure: 29.87"   Gusts: NA
Location:  42.57°N, 77.59°W
Report Text: KDSV 251054Z AUTO 14006KT 10SM OVC050 09/05 A2987 RMK AO2 SLP125 T00940050
Loading
Personal Weather Stations






























Interactive Weather Map
Tropical Storm Tracking
New forecast layout! Learn more

10-Day Weather Forecast

Advertisements
Track Severe Weather on mobile